createdAt,value
2023-06-17T00:04:28.714Z,99984.25
2023-06-17T00:09:30.938Z,99980.56
2023-06-17T00:14:33.839Z,99967.62
2023-06-17T00:19:37.190Z,99968.88
2023-06-17T00:24:39.456Z,99959.75
2023-06-17T00:29:41.774Z,99959.81
2023-06-17T00:34:43.994Z,99948.25
2023-06-17T00:39:46.341Z,99947.84
2023-06-17T00:44:48.572Z,99942.16
2023-06-17T00:49:54.761Z,99948.63
2023-06-17T00:54:57.083Z,99950.78
2023-06-17T00:59:59.414Z,99949.53
2023-06-17T01:05:02.272Z,99943.88
2023-06-17T01:10:19.151Z,99942.31
2023-06-17T01:15:22.890Z,99927.22
2023-06-17T01:20:26.956Z,99935.16
2023-06-17T01:25:32.760Z,99924.75
2023-06-17T01:30:35.153Z,99940.31
2023-06-17T01:35:42.025Z,99940.97
2023-06-17T01:40:46.338Z,99941.81
2023-06-17T01:45:48.824Z,99943.72
2023-06-17T01:50:51.680Z,99941.00
2023-06-17T01:55:54.283Z,99939.63
2023-06-17T02:00:56.538Z,99941.56
2023-06-17T02:05:59.377Z,99942.91
2023-06-17T02:11:02.391Z,99934.09
2023-06-17T02:16:04.802Z,99932.81
2023-06-17T02:21:06.958Z,99935.38
2023-06-17T02:26:09.219Z,99939.69
2023-06-17T02:31:11.734Z,99940.50
2023-06-17T02:36:15.717Z,99940.31
2023-06-17T02:41:17.934Z,99945.34
2023-06-17T02:46:20.379Z,99942.91
2023-06-17T02:51:23.667Z,99944.47
2023-06-17T02:56:27.758Z,99945.47
2023-06-17T03:01:30.086Z,99955.94
2023-06-17T03:06:35.271Z,99950.78
2023-06-17T03:11:37.992Z,99956.53
2023-06-17T03:16:41.714Z,99954.91
2023-06-17T03:21:44.353Z,99962.28
2023-06-17T03:26:46.750Z,99967.47
2023-06-17T03:31:48.937Z,99972.41
2023-06-17T03:36:51.395Z,99969.09
2023-06-17T03:41:53.617Z,99974.34
2023-06-17T03:46:58.389Z,99980.25
2023-06-17T03:52:00.684Z,99983.78
2023-06-17T03:57:03.466Z,99981.25
2023-06-17T04:02:05.852Z,99980.72
2023-06-17T04:07:08.160Z,99985.97
2023-06-17T04:12:10.922Z,99993.13
2023-06-17T04:17:13.076Z,99997.78
2023-06-17T04:22:15.284Z,99992.91
2023-06-17T04:27:17.422Z,100003.03
2023-06-17T04:32:19.641Z,99996.56
2023-06-17T04:37:21.798Z,99999.91
2023-06-17T04:42:24.633Z,100002.44
2023-06-17T04:47:27.010Z,100015.00
2023-06-17T04:52:31.947Z,100005.38
2023-06-17T04:57:34.738Z,100004.72
2023-06-17T05:02:37.808Z,100001.81
2023-06-17T05:07:40.170Z,99998.91
2023-06-17T05:12:42.813Z,100011.78
2023-06-17T05:17:45.315Z,100007.06
2023-06-17T05:22:47.687Z,100006.87
2023-06-17T05:27:51.647Z,100006.25
2023-06-17T05:32:53.872Z,100006.41
2023-06-17T05:37:56.161Z,100002.94
2023-06-17T05:42:58.575Z,100002.00
2023-06-17T05:48:01.005Z,100023.53
2023-06-17T05:53:03.848Z,100025.31
2023-06-17T05:58:06.131Z,100031.19
2023-06-17T06:03:08.330Z,100042.31
2023-06-17T06:08:10.656Z,100028.91
2023-06-17T06:13:13.077Z,100038.38
2023-06-17T06:18:15.817Z,100043.91
2023-06-17T06:23:18.017Z,100038.97
2023-06-17T06:28:20.200Z,100047.34
2023-06-17T06:33:24.047Z,100044.03
2023-06-17T06:38:26.292Z,100040.47
2023-06-17T06:43:28.508Z,100050.53
2023-06-17T06:48:30.785Z,100043.97
2023-06-17T06:53:33.267Z,100054.44
2023-06-17T06:58:35.715Z,100050.69
2023-06-17T07:03:38.578Z,100064.50
2023-06-17T07:08:40.827Z,100063.47
2023-06-17T07:13:43.099Z,100055.25
2023-06-17T07:18:45.301Z,100064.00
2023-06-17T07:23:47.628Z,100051.56
2023-06-17T07:28:49.878Z,100050.97
2023-06-17T07:33:57.811Z,100055.72
2023-06-17T07:39:02.933Z,100059.31
2023-06-17T07:44:05.268Z,100058.16
2023-06-17T07:49:07.481Z,100056.03
2023-06-17T07:54:09.995Z,100048.78
2023-06-17T07:59:12.198Z,100054.84
2023-06-17T08:04:14.546Z,100051.34
2023-06-17T08:09:16.749Z,100058.38
2023-06-17T08:14:19.117Z,100037.97
2023-06-17T08:19:21.381Z,100023.84
2023-06-17T08:24:26.062Z,100033.91
2023-06-17T08:29:28.469Z,100024.34
2023-06-17T08:34:33.721Z,100026.19
2023-06-17T08:39:40.814Z,100032.34
2023-06-17T08:44:45.290Z,100033.47
2023-06-17T08:49:48.161Z,100046.81
2023-06-17T08:54:51.154Z,100048.78
2023-06-17T08:59:53.319Z,100046.72
2023-06-17T09:04:55.791Z,100044.22
2023-06-17T09:10:09.035Z,100042.47
2023-06-17T09:15:18.515Z,100038.22
2023-06-17T09:20:21.406Z,100040.59
2023-06-17T09:25:24.488Z,100043.56
2023-06-17T09:30:26.830Z,100040.34
2023-06-17T09:35:29.035Z,100034.94
2023-06-17T09:40:33.857Z,100049.03
2023-06-17T09:45:36.284Z,100044.34
2023-06-17T09:50:39.009Z,100039.41
2023-06-17T09:55:42.828Z,100034.16
2023-06-17T10:00:46.761Z,100046.75
2023-06-17T10:06:01.498Z,100031.56
2023-06-17T10:11:04.101Z,100044.03
2023-06-17T10:16:11.924Z,100029.66
2023-06-17T10:21:14.923Z,100035.22
2023-06-17T10:26:17.095Z,100039.94
2023-06-17T10:31:29.823Z,100036.50
2023-06-17T10:36:35.026Z,100039.06
2023-06-17T10:41:43.121Z,100037.41
2023-06-17T10:46:47.680Z,100046.28
2023-06-17T10:51:59.222Z,100028.59
2023-06-17T10:57:02.905Z,100040.47
2023-06-17T11:02:09.008Z,100024.84
2023-06-17T11:07:11.292Z,100030.44
2023-06-17T11:12:17.553Z,100024.00
2023-06-17T11:17:19.926Z,100021.97
2023-06-17T11:22:23.868Z,100037.50
2023-06-17T11:27:26.152Z,100025.75
2023-06-17T11:32:29.193Z,100019.00
2023-06-17T11:37:33.552Z,100018.88
2023-06-17T11:42:35.976Z,100009.75
2023-06-17T11:47:38.420Z,100003.97
2023-06-17T11:52:40.763Z,100002.25
2023-06-17T11:57:43.825Z,100005.91
2023-06-17T12:02:46.345Z,100003.78
2023-06-17T12:07:49.029Z,100006.34
2023-06-17T12:12:51.856Z,100005.34
2023-06-17T12:17:56.247Z,99989.16
2023-06-17T12:22:59.087Z,99994.56
2023-06-17T12:28:03.006Z,99999.19
2023-06-17T12:33:05.318Z,99992.13
2023-06-17T12:38:09.242Z,99986.16
2023-06-17T12:43:11.474Z,99992.75
2023-06-17T12:48:13.806Z,100001.38
2023-06-17T12:53:16.137Z,99987.31
2023-06-17T12:58:18.362Z,99981.19
2023-06-17T13:03:21.840Z,99985.94
2023-06-17T13:08:24.109Z,99989.66
2023-06-17T13:13:28.357Z,99984.94
2023-06-17T13:18:30.585Z,99978.41
2023-06-17T13:23:32.793Z,99972.97
2023-06-17T13:28:36.053Z,99978.41
2023-06-17T13:33:39.050Z,99975.66
2023-06-17T13:38:41.472Z,99977.66
2023-06-17T13:43:43.702Z,99979.06
2023-06-17T13:48:46.071Z,99971.84
2023-06-17T13:53:48.344Z,99978.56
2023-06-17T13:58:50.566Z,99973.44
2023-06-17T14:03:53.377Z,99978.00
2023-06-17T14:08:55.739Z,99972.72
2023-06-17T14:13:57.988Z,99983.50
2023-06-17T14:19:00.878Z,99986.69
2023-06-17T14:24:05.938Z,99980.19
2023-06-17T14:29:10.073Z,99984.53
2023-06-17T14:34:12.322Z,99980.88
2023-06-17T14:39:14.529Z,99973.16
2023-06-17T14:44:16.903Z,99969.53
2023-06-17T14:49:19.397Z,99961.19
2023-06-17T14:54:21.666Z,99951.47
2023-06-17T14:59:24.205Z,99955.84
2023-06-17T15:04:28.000Z,99958.06
2023-06-17T15:09:31.951Z,99961.19
2023-06-17T15:14:36.629Z,99951.91
2023-06-17T15:19:38.882Z,99956.31
2023-06-17T15:24:43.987Z,99964.66
2023-06-17T15:29:46.189Z,99959.44
2023-06-17T15:34:49.069Z,99969.34
2023-06-17T15:39:51.592Z,99973.22
2023-06-17T15:44:53.808Z,99968.16
2023-06-17T15:49:56.000Z,99961.97
2023-06-17T15:54:58.411Z,99954.63
2023-06-17T16:00:02.637Z,99953.09
2023-06-17T16:05:05.351Z,99963.59
2023-06-17T16:10:08.083Z,99962.37
2023-06-17T16:15:19.567Z,99974.09
2023-06-17T16:20:22.177Z,99979.34
2023-06-17T16:25:24.602Z,99970.44
2023-06-17T16:30:34.277Z,99975.72
2023-06-17T16:35:36.545Z,99993.28
2023-06-17T16:40:38.842Z,99987.81
2023-06-17T16:45:41.518Z,99999.66
2023-06-17T16:50:43.908Z,100000.63
2023-06-17T16:55:46.446Z,100017.13
2023-06-17T17:00:48.628Z,100018.72
2023-06-17T17:05:51.171Z,100017.63
2023-06-17T17:10:53.468Z,100026.91
2023-06-17T17:15:56.277Z,100031.62
2023-06-17T17:20:58.641Z,100029.03
2023-06-17T17:26:00.924Z,100042.09
2023-06-17T17:31:04.057Z,100040.56
2023-06-17T17:36:07.272Z,100038.97
2023-06-17T17:41:10.210Z,100047.72
2023-06-17T17:46:12.621Z,100058.50
2023-06-17T17:51:15.259Z,100050.34
2023-06-17T17:56:17.571Z,100055.78
2023-06-17T18:01:19.851Z,100062.72
2023-06-17T18:06:22.515Z,100062.88
2023-06-17T18:11:24.791Z,100069.44
2023-06-17T18:16:27.073Z,100075.91
2023-06-17T18:21:29.914Z,100077.63
2023-06-17T18:26:32.230Z,100087.09
2023-06-17T18:31:34.536Z,100103.19
2023-06-17T18:36:36.821Z,100108.37
2023-06-17T18:41:43.134Z,100110.81
2023-06-17T18:46:45.789Z,100121.47
2023-06-17T18:51:48.470Z,100119.06
2023-06-17T18:56:50.889Z,100118.91
2023-06-17T19:01:53.182Z,100121.59
2023-06-17T19:06:55.788Z,100131.38
2023-06-17T19:12:00.975Z,100131.25
2023-06-17T19:17:03.772Z,100137.53
2023-06-17T19:22:06.412Z,100142.69
2023-06-17T19:27:08.700Z,100161.25
2023-06-17T19:32:10.934Z,100153.59
2023-06-17T19:37:13.235Z,100168.44
2023-06-17T19:42:15.636Z,100177.28
2023-06-17T19:47:17.995Z,100176.97
2023-06-17T19:52:21.347Z,100183.47
2023-06-17T19:57:23.642Z,100184.03
2023-06-17T20:02:26.227Z,100188.78
2023-06-17T20:07:28.512Z,100185.38
2023-06-17T20:12:31.150Z,100183.88
2023-06-17T20:17:33.481Z,100181.00
2023-06-17T20:22:35.789Z,100174.09
2023-06-17T20:27:38.262Z,100179.59
2023-06-17T20:32:41.702Z,100170.16
2023-06-17T20:37:44.348Z,100180.53
2023-06-17T20:42:46.644Z,100176.81
2023-06-17T20:47:49.002Z,100183.22
2023-06-17T20:52:51.273Z,100169.69
2023-06-17T20:57:53.463Z,100168.78
2023-06-17T21:02:56.083Z,100167.38
2023-06-17T21:07:58.653Z,100166.88
2023-06-17T21:13:01.585Z,100172.63
2023-06-17T21:18:03.928Z,100186.16
2023-06-17T21:23:06.149Z,100175.63
2023-06-17T21:28:08.358Z,100174.88
2023-06-17T21:33:10.766Z,100170.66
2023-06-17T21:38:13.100Z,100166.94
2023-06-17T21:43:15.826Z,100165.44
2023-06-17T21:48:18.188Z,100175.94
2023-06-17T21:53:20.630Z,100179.91
2023-06-17T21:58:22.964Z,100182.81
2023-06-17T22:03:25.605Z,100181.22
2023-06-17T22:08:41.226Z,100173.97
2023-06-17T22:13:44.983Z,100188.06
2023-06-17T22:18:47.417Z,100204.88
2023-06-17T22:23:49.959Z,100197.41
2023-06-17T22:28:52.653Z,100204.62
2023-06-17T22:33:54.869Z,100208.06
2023-06-17T22:38:57.061Z,100212.31
2023-06-17T22:43:59.404Z,100209.84
2023-06-17T22:49:01.939Z,100216.69
2023-06-17T22:54:04.353Z,100213.63
2023-06-17T22:59:06.625Z,100207.69
2023-06-17T23:04:08.836Z,100205.59
2023-06-17T23:09:11.587Z,100211.97
2023-06-17T23:14:13.799Z,100200.72
2023-06-17T23:19:16.254Z,100208.88
2023-06-17T23:24:18.418Z,100219.09
2023-06-17T23:29:20.942Z,100220.37
2023-06-17T23:34:23.257Z,100216.13
2023-06-17T23:39:25.508Z,100216.25
2023-06-17T23:44:27.779Z,100213.87
2023-06-17T23:49:35.595Z,100216.53
2023-06-17T23:54:38.263Z,100215.69
2023-06-17T23:59:41.271Z,100220.25
